createdAt,value
2018-07-22T00:03:31.463Z,18.80
2018-07-22T00:05:59.958Z,18.80
2018-07-22T00:08:28.237Z,18.80
2018-07-22T00:10:56.867Z,18.80
2018-07-22T00:13:25.267Z,18.70
2018-07-22T00:18:21.842Z,18.80
2018-07-22T00:25:47.435Z,18.80
2018-07-22T00:28:15.850Z,18.80
2018-07-22T00:30:45.336Z,18.80
2018-07-22T00:33:14.568Z,18.70
2018-07-22T00:35:42.992Z,18.70
2018-07-22T00:38:11.412Z,18.70
2018-07-22T00:40:39.913Z,18.70
2018-07-22T00:43:10.139Z,18.70
2018-07-22T00:48:07.277Z,18.70
2018-07-22T00:50:35.427Z,18.70
2018-07-22T00:53:03.763Z,18.60
2018-07-22T00:55:32.155Z,18.60
2018-07-22T00:58:00.545Z,18.60
2018-07-22T01:02:56.892Z,18.70
2018-07-22T01:05:24.829Z,18.70
2018-07-22T01:07:53.011Z,18.60
2018-07-22T01:10:21.424Z,18.60
2018-07-22T01:12:49.800Z,18.60
2018-07-22T01:15:19.218Z,18.60
2018-07-22T01:17:48.036Z,18.70
2018-07-22T01:22:44.557Z,18.70
2018-07-22T01:25:13.030Z,18.70
2018-07-22T01:27:41.435Z,18.70
2018-07-22T01:32:39.195Z,18.70
2018-07-22T01:35:07.693Z,18.60
2018-07-22T01:37:35.941Z,18.60
2018-07-22T01:40:04.447Z,18.60
2018-07-22T01:45:01.029Z,18.60
2018-07-22T01:47:29.241Z,18.60
2018-07-22T01:49:57.443Z,18.60
2018-07-22T01:54:53.677Z,18.60
2018-07-22T01:57:23.155Z,18.60
2018-07-22T02:07:16.254Z,18.50
2018-07-22T02:09:44.652Z,18.40
2018-07-22T02:12:13.742Z,18.40
2018-07-22T02:17:09.960Z,18.30
2018-07-22T02:19:38.254Z,18.30
2018-07-22T02:22:06.636Z,18.30
2018-07-22T02:27:03.037Z,18.30
2018-07-22T02:31:59.415Z,18.30
2018-07-22T02:36:56.065Z,18.20
2018-07-22T02:39:24.304Z,18.20
2018-07-22T02:41:52.606Z,18.20
2018-07-22T02:44:20.791Z,18.20
2018-07-22T02:46:49.194Z,18.20
2018-07-22T02:49:17.607Z,18.20
2018-07-22T02:54:14.108Z,18.10
2018-07-22T02:56:42.610Z,18.10
2018-07-22T02:59:10.714Z,18.10
2018-07-22T03:01:39.072Z,18.10
2018-07-22T03:04:07.971Z,18.10
2018-07-22T03:06:36.272Z,18.10
2018-07-22T03:09:06.562Z,18.10
2018-07-22T03:11:34.934Z,18.00
2018-07-22T03:16:31.431Z,18.00
2018-07-22T03:21:27.743Z,18.00
2018-07-22T03:23:56.235Z,18.00
2018-07-22T03:26:24.521Z,18.00
2018-07-22T03:31:20.889Z,18.00
2018-07-22T03:33:48.837Z,17.90
2018-07-22T03:36:17.109Z,17.90
2018-07-22T03:38:45.379Z,17.90
2018-07-22T03:41:13.431Z,17.90
2018-07-22T03:43:41.682Z,17.90
2018-07-22T03:48:38.065Z,17.90
2018-07-22T03:56:02.965Z,17.90
2018-07-22T03:58:31.239Z,17.90
2018-07-22T04:00:59.658Z,17.90
2018-07-22T04:08:25.276Z,17.90
2018-07-22T04:10:53.560Z,17.90
2018-07-22T04:15:49.560Z,18.00
2018-07-22T04:18:17.718Z,18.00
2018-07-22T04:20:46.116Z,18.00
2018-07-22T04:23:18.265Z,18.00
2018-07-22T04:25:46.508Z,18.00
2018-07-22T04:28:14.929Z,18.00
2018-07-22T04:33:12.248Z,18.00
2018-07-22T04:35:41.053Z,18.00
2018-07-22T04:38:09.555Z,18.10
2018-07-22T04:40:37.749Z,18.10
2018-07-22T04:43:05.995Z,18.10
2018-07-22T04:45:34.195Z,18.10
2018-07-22T04:48:02.483Z,18.20
2018-07-22T04:50:30.808Z,18.30
2018-07-22T04:52:58.991Z,18.30
2018-07-22T04:55:27.408Z,18.30
2018-07-22T04:57:55.728Z,18.40
2018-07-22T05:00:24.353Z,18.40
2018-07-22T05:02:52.523Z,18.50
2018-07-22T05:10:17.121Z,18.60
2018-07-22T05:12:45.497Z,18.60
2018-07-22T05:17:41.781Z,18.70
2018-07-22T05:20:10.089Z,18.70
2018-07-22T05:25:07.319Z,18.70
2018-07-22T05:27:35.487Z,18.80
2018-07-22T05:30:04.088Z,18.80
2018-07-22T05:32:37.710Z,18.80
2018-07-22T05:40:02.589Z,19.00
2018-07-22T05:42:30.972Z,19.10
2018-07-22T05:44:59.101Z,19.10
2018-07-22T05:49:55.294Z,19.20
2018-07-22T05:52:23.579Z,19.30
2018-07-22T05:57:20.158Z,19.40
2018-07-22T05:59:48.558Z,19.50
2018-07-22T06:04:45.674Z,19.50
2018-07-22T06:09:41.932Z,19.60
2018-07-22T06:12:10.540Z,19.70
2018-07-22T06:14:38.765Z,19.70
2018-07-22T06:22:09.179Z,19.90
2018-07-22T06:24:37.829Z,20.00
2018-07-22T06:27:09.663Z,20.10
2018-07-22T06:34:34.548Z,20.50
2018-07-22T06:39:31.073Z,20.90
2018-07-22T06:41:59.447Z,21.10
2018-07-22T06:44:27.970Z,21.30
2018-07-22T06:46:56.351Z,21.40
2018-07-22T06:49:24.772Z,21.40
2018-07-22T06:51:53.294Z,21.50
2018-07-22T06:54:21.446Z,21.60
2018-07-22T06:56:49.732Z,21.70
2018-07-22T06:59:18.169Z,21.80
2018-07-22T07:01:46.922Z,22.00
2018-07-22T07:04:15.432Z,22.10
2018-07-22T07:06:43.762Z,22.30
2018-07-22T07:09:12.390Z,22.60
2018-07-22T07:11:40.977Z,23.00
2018-07-22T07:14:10.006Z,23.40
2018-07-22T07:16:39.542Z,23.90
2018-07-22T07:19:07.811Z,24.20
2018-07-22T07:21:36.209Z,24.50
2018-07-22T07:24:04.407Z,24.60
2018-07-22T07:26:33.313Z,24.70
2018-07-22T07:29:01.817Z,24.70
2018-07-22T07:31:30.193Z,24.80
2018-07-22T07:34:00.869Z,24.90
2018-07-22T07:36:29.282Z,25.10
2018-07-22T07:38:57.787Z,25.30
2018-07-22T07:41:26.294Z,25.60
2018-07-22T07:43:54.566Z,25.70
2018-07-22T07:48:51.044Z,25.80
2018-07-22T07:51:19.356Z,25.70
2018-07-22T07:58:44.197Z,26.20
2018-07-22T08:01:14.596Z,26.60
2018-07-22T08:03:42.981Z,26.90
2018-07-22T08:11:07.697Z,26.50
2018-07-22T08:13:36.076Z,26.40
2018-07-22T08:18:33.295Z,26.50
2018-07-22T08:21:01.664Z,26.70
2018-07-22T08:29:36.517Z,27.10
2018-07-22T08:32:05.919Z,27.20
2018-07-22T08:34:38.034Z,27.60
2018-07-22T08:37:08.035Z,27.80
2018-07-22T08:39:36.558Z,28.00
2018-07-22T08:42:06.162Z,28.20
2018-07-22T08:44:34.785Z,28.40
2018-07-22T08:47:03.099Z,28.60
2018-07-22T08:49:31.440Z,28.70
2018-07-22T08:51:59.772Z,28.80
2018-07-22T08:54:28.160Z,28.90
2018-07-22T08:56:56.601Z,28.80
2018-07-22T08:59:24.982Z,28.60
2018-07-22T09:04:23.029Z,28.20
2018-07-22T09:06:51.427Z,28.20
2018-07-22T09:09:19.828Z,28.00
2018-07-22T09:11:48.320Z,27.90
2018-07-22T09:14:16.729Z,27.90
2018-07-22T09:16:48.497Z,27.90
2018-07-22T09:24:13.193Z,27.90
2018-07-22T09:26:43.743Z,27.90
2018-07-22T09:29:12.278Z,27.90
2018-07-22T09:31:40.739Z,28.00
2018-07-22T09:34:09.056Z,27.90
2018-07-22T09:36:38.814Z,27.90
2018-07-22T09:39:09.436Z,28.10
2018-07-22T09:41:37.920Z,28.10
2018-07-22T09:44:07.343Z,27.90
2018-07-22T09:51:49.826Z,28.10
2018-07-22T09:54:18.720Z,28.20
2018-07-22T09:56:47.273Z,28.20
2018-07-22T09:59:15.768Z,28.20
2018-07-22T10:01:44.327Z,28.20
2018-07-22T10:04:25.139Z,28.20
2018-07-22T10:06:54.449Z,28.20
2018-07-22T10:09:22.959Z,28.10
2018-07-22T10:11:51.351Z,28.10
2018-07-22T10:14:34.010Z,28.00
2018-07-22T10:17:02.229Z,28.00
2018-07-22T10:19:30.684Z,28.00
2018-07-22T10:21:59.567Z,28.10
2018-07-22T10:24:37.062Z,28.10
2018-07-22T10:27:05.474Z,28.10
2018-07-22T10:29:33.845Z,28.20
2018-07-22T10:32:02.640Z,28.20
2018-07-22T10:34:33.159Z,28.30
2018-07-22T10:37:02.747Z,28.50
2018-07-22T10:39:31.259Z,28.50
2018-07-22T10:41:59.602Z,28.50
2018-07-22T10:44:28.255Z,28.50
2018-07-22T10:46:56.581Z,28.30
2018-07-22T10:49:24.948Z,28.20
2018-07-22T10:51:53.348Z,28.30
2018-07-22T10:56:49.895Z,28.00
2018-07-22T10:59:18.530Z,27.90
2018-07-22T11:01:50.432Z,27.80
2018-07-22T11:04:19.028Z,27.80
2018-07-22T11:09:16.381Z,27.60
2018-07-22T11:11:58.759Z,27.40
2018-07-22T11:14:27.234Z,27.20
2018-07-22T11:16:55.455Z,26.90
2018-07-22T11:19:40.418Z,26.60
2018-07-22T11:24:37.008Z,26.60
2018-07-22T11:27:05.857Z,26.60
2018-07-22T11:32:38.674Z,26.80
2018-07-22T11:35:07.534Z,26.80
2018-07-22T11:37:37.110Z,26.60
2018-07-22T11:40:05.745Z,26.30
2018-07-22T11:42:44.785Z,26.00
2018-07-22T11:50:27.446Z,25.60
2018-07-22T11:52:55.614Z,25.60
2018-07-22T11:55:24.084Z,25.70
2018-07-22T12:03:46.363Z,26.00
2018-07-22T12:06:14.527Z,26.10
2018-07-22T12:08:43.133Z,26.10
2018-07-22T12:11:18.174Z,26.10
2018-07-22T12:13:46.606Z,26.10
2018-07-22T12:16:15.772Z,26.20
2018-07-22T12:18:48.489Z,26.30
2018-07-22T12:23:45.105Z,26.30
2018-07-22T12:26:31.690Z,26.30
2018-07-22T12:31:28.622Z,26.20
2018-07-22T12:34:12.992Z,26.10
2018-07-22T12:36:41.281Z,26.00
2018-07-22T12:39:11.689Z,25.90
2018-07-22T12:46:54.621Z,25.70
2018-07-22T12:49:22.996Z,25.70
2018-07-22T12:51:51.304Z,25.70
2018-07-22T12:54:19.818Z,25.70
2018-07-22T12:56:48.171Z,25.70
2018-07-22T12:59:17.102Z,25.60
2018-07-22T13:01:45.533Z,25.70
2018-07-22T13:04:16.064Z,25.70
2018-07-22T13:06:44.544Z,25.70
2018-07-22T13:09:12.665Z,25.70
2018-07-22T13:11:41.509Z,25.80
2018-07-22T13:14:09.964Z,25.70
2018-07-22T13:16:38.571Z,25.70
2018-07-22T13:19:06.999Z,25.50
2018-07-22T13:21:35.445Z,25.30
2018-07-22T13:28:59.932Z,25.30
2018-07-22T13:31:28.351Z,25.40
2018-07-22T13:33:56.731Z,25.50
2018-07-22T13:36:25.135Z,25.70
2018-07-22T13:38:54.265Z,25.80
2018-07-22T13:41:22.583Z,25.90
2018-07-22T13:43:51.055Z,26.00
2018-07-22T13:48:47.156Z,26.20
2018-07-22T13:51:15.557Z,26.30
2018-07-22T13:53:44.062Z,26.40
2018-07-22T13:56:12.686Z,26.40
2018-07-22T13:58:41.060Z,26.50
2018-07-22T14:01:09.362Z,26.50
2018-07-22T14:03:38.590Z,26.60
2018-07-22T14:06:07.254Z,26.70
2018-07-22T14:08:35.683Z,26.80
2018-07-22T14:11:04.385Z,26.90
2018-07-22T14:13:32.872Z,27.00
2018-07-22T14:16:01.289Z,27.00
2018-07-22T14:18:29.793Z,27.10
2018-07-22T14:20:57.921Z,27.20
2018-07-22T14:23:26.073Z,27.20
2018-07-22T14:28:23.321Z,27.20
2018-07-22T14:30:51.819Z,27.20
2018-07-22T14:33:20.287Z,27.20
2018-07-22T14:35:48.480Z,27.30
2018-07-22T14:38:16.762Z,27.30
2018-07-22T14:43:13.260Z,27.40
2018-07-22T14:48:09.765Z,27.50
2018-07-22T14:50:38.267Z,27.50
2018-07-22T14:53:06.854Z,27.50
2018-07-22T15:03:00.349Z,27.50
2018-07-22T15:05:28.725Z,27.30
2018-07-22T15:07:57.528Z,27.30
2018-07-22T15:10:25.771Z,27.20
2018-07-22T15:12:54.640Z,27.20
2018-07-22T15:15:22.965Z,27.20
2018-07-22T15:20:19.777Z,27.10
2018-07-22T15:22:48.350Z,27.10
2018-07-22T15:25:20.366Z,27.10
2018-07-22T15:27:48.455Z,27.10
2018-07-22T15:30:16.531Z,27.10
2018-07-22T15:35:13.681Z,27.00
2018-07-22T15:37:42.057Z,26.90
2018-07-22T15:40:10.454Z,26.80
2018-07-22T15:42:38.871Z,26.70
2018-07-22T15:45:09.168Z,26.70
2018-07-22T15:47:37.702Z,26.60
2018-07-22T15:52:38.269Z,26.50
2018-07-22T15:57:34.671Z,26.40
2018-07-22T16:02:31.503Z,26.30
2018-07-22T16:04:59.983Z,26.30
2018-07-22T16:07:28.372Z,26.20
2018-07-22T16:09:56.887Z,26.10
2018-07-22T16:12:25.884Z,26.10
2018-07-22T16:14:54.406Z,26.10
2018-07-22T16:17:22.909Z,26.10
2018-07-22T16:19:51.489Z,26.10
2018-07-22T16:24:56.155Z,26.20
2018-07-22T16:27:24.449Z,26.30
2018-07-22T16:29:52.884Z,26.30
2018-07-22T16:32:24.637Z,26.30
2018-07-22T16:34:52.939Z,26.30
2018-07-22T16:37:21.352Z,26.30
2018-07-22T16:39:49.713Z,26.30
2018-07-22T16:44:46.294Z,26.00
2018-07-22T16:47:14.711Z,25.90
2018-07-22T16:49:45.160Z,25.80
2018-07-22T16:52:13.588Z,25.80
2018-07-22T16:54:41.963Z,25.90
2018-07-22T16:57:29.709Z,25.90
2018-07-22T16:59:58.082Z,25.80
2018-07-22T17:02:26.613Z,25.70
2018-07-22T17:04:55.088Z,25.70
2018-07-22T17:07:37.728Z,25.50
2018-07-22T17:10:06.142Z,25.40
2018-07-22T17:12:34.536Z,25.20
2018-07-22T17:15:15.731Z,25.10
2018-07-22T17:17:43.933Z,24.90
2018-07-22T17:20:12.607Z,24.70
2018-07-22T17:25:19.368Z,24.20
2018-07-22T17:27:47.736Z,24.00
2018-07-22T17:30:20.528Z,23.80
2018-07-22T17:32:49.207Z,23.60
2018-07-22T17:35:17.640Z,23.40
2018-07-22T17:37:46.142Z,23.30
2018-07-22T17:43:22.317Z,23.20
2018-07-22T17:45:50.723Z,23.10
2018-07-22T17:48:19.316Z,23.00
2018-07-22T17:50:59.310Z,22.90
2018-07-22T17:53:27.784Z,22.90
2018-07-22T17:55:56.277Z,22.80
2018-07-22T17:58:24.937Z,22.80
2018-07-22T18:03:56.158Z,22.60
2018-07-22T18:06:24.485Z,22.50
2018-07-22T18:08:52.864Z,22.40
2018-07-22T18:11:22.370Z,22.30
2018-07-22T18:14:01.235Z,22.30
2018-07-22T18:16:29.909Z,22.20
2018-07-22T18:18:58.614Z,22.20
2018-07-22T18:23:54.903Z,22.00
2018-07-22T18:26:23.405Z,22.00
2018-07-22T18:28:51.869Z,21.90
2018-07-22T18:31:20.562Z,21.80
2018-07-22T18:33:49.220Z,21.80
2018-07-22T18:36:18.862Z,21.70
2018-07-22T18:38:47.336Z,21.70
2018-07-22T18:43:44.749Z,21.50
2018-07-22T18:46:13.325Z,21.50
2018-07-22T18:48:41.745Z,21.50
2018-07-22T18:51:09.958Z,21.40
2018-07-22T18:53:38.575Z,21.40
2018-07-22T18:56:07.355Z,21.30
2018-07-22T19:03:45.765Z,21.20
2018-07-22T19:08:42.939Z,21.10
2018-07-22T19:11:11.469Z,21.10
2018-07-22T19:13:40.179Z,21.00
2018-07-22T19:16:13.694Z,20.90
2018-07-22T19:18:42.467Z,20.90
2018-07-22T19:21:10.979Z,20.80
2018-07-22T19:23:39.753Z,20.80
2018-07-22T19:26:11.633Z,20.70
2018-07-22T19:28:40.168Z,20.60
2018-07-22T19:33:37.108Z,20.50
2018-07-22T19:36:10.184Z,20.50
2018-07-22T19:38:38.769Z,20.40
2018-07-22T19:41:07.513Z,20.40
2018-07-22T19:43:36.101Z,20.30
2018-07-22T19:46:09.989Z,20.30
2018-07-22T19:48:39.655Z,20.30
2018-07-22T19:53:37.513Z,20.30
2018-07-22T19:56:09.575Z,20.20
2018-07-22T19:58:38.385Z,20.20
2018-07-22T20:01:07.271Z,20.30
2018-07-22T20:03:36.675Z,20.30
2018-07-22T20:06:05.518Z,20.30
2018-07-22T20:08:34.982Z,20.30
2018-07-22T20:11:03.533Z,20.30
2018-07-22T20:18:28.439Z,20.30
2018-07-22T20:20:56.947Z,20.30
2018-07-22T20:23:27.506Z,20.30
2018-07-22T20:25:55.768Z,20.30
2018-07-22T20:30:52.378Z,20.30
2018-07-22T20:33:20.762Z,20.30
2018-07-22T20:40:45.770Z,20.20
2018-07-22T20:45:46.462Z,20.20
2018-07-22T20:48:14.862Z,20.20
2018-07-22T20:50:43.297Z,20.20
2018-07-22T20:53:11.726Z,20.20
2018-07-22T20:55:40.366Z,20.10
2018-07-22T20:58:08.664Z,20.10
2018-07-22T21:00:36.926Z,20.10
2018-07-22T21:03:05.477Z,20.10
2018-07-22T21:05:34.141Z,20.00
2018-07-22T21:08:02.521Z,20.00
2018-07-22T21:10:31.037Z,20.00
2018-07-22T21:13:10.513Z,20.00
2018-07-22T21:15:39.123Z,19.90
2018-07-22T21:18:07.514Z,19.90
2018-07-22T21:25:35.000Z,19.90
2018-07-22T21:28:03.472Z,19.90
2018-07-22T21:30:39.009Z,19.90
2018-07-22T21:33:07.410Z,19.90
2018-07-22T21:38:04.753Z,19.90
2018-07-22T21:40:33.653Z,19.80
2018-07-22T21:43:01.948Z,19.80
2018-07-22T21:45:30.447Z,19.80
2018-07-22T21:48:04.474Z,19.70
2018-07-22T21:50:33.781Z,19.70
2018-07-22T21:53:02.295Z,19.70
2018-07-22T21:55:30.612Z,19.60
2018-07-22T21:57:59.185Z,19.60
2018-07-22T22:10:33.963Z,19.40
2018-07-22T22:15:31.476Z,19.30
2018-07-22T22:20:30.367Z,19.20
2018-07-22T22:22:58.516Z,19.20
2018-07-22T22:27:55.100Z,19.10
2018-07-22T22:30:23.732Z,19.10
2018-07-22T22:32:52.163Z,19.10
2018-07-22T22:35:20.618Z,19.00
2018-07-22T22:37:48.918Z,19.00
2018-07-22T22:45:14.851Z,18.90
2018-07-22T22:47:43.239Z,18.80
2018-07-22T22:52:39.526Z,18.70
2018-07-22T22:55:07.596Z,18.70
2018-07-22T22:57:35.881Z,18.70
2018-07-22T23:00:11.487Z,18.60
2018-07-22T23:02:39.767Z,18.60
2018-07-22T23:07:36.486Z,18.50
2018-07-22T23:10:08.259Z,18.50
2018-07-22T23:12:36.430Z,18.50
2018-07-22T23:15:04.745Z,18.50
2018-07-22T23:17:33.570Z,18.50
2018-07-22T23:20:07.682Z,18.50
2018-07-22T23:27:32.263Z,18.50
2018-07-22T23:32:28.867Z,18.50
2018-07-22T23:34:57.378Z,18.40
2018-07-22T23:37:25.741Z,18.40
2018-07-22T23:39:53.944Z,18.40
2018-07-22T23:42:22.219Z,18.40
2018-07-22T23:44:50.554Z,18.30
2018-07-22T23:47:20.065Z,18.30
2018-07-22T23:49:48.485Z,18.30
2018-07-22T23:52:16.855Z,18.40
2018-07-22T23:54:45.415Z,18.30
2018-07-22T23:57:13.775Z,18.30
2018-07-22T23:59:42.824Z,18.30
